Time;durP1;ratioP1;P1;durP2;ratioP2;P2;SDS_P1;SDS_P2;PMS_P1;PMS_P2;Temp;Humidity;BMP_temperature;BMP_pressure;BME280_temperature;BME280_humidity;BME280_pressure;Samples;Min_cycle;Max_cycle;Signal;HPM_P1;HPM_P2
2021/05/18 00:00:53;;;;;;;0.80;0.40;;;;;;;;;;5014406;28;20521;-87
2021/05/18 00:03:20;;;;;;;1.93;0.40;;;;;;;;;;5015575;28;20452;-88
2021/05/18 00:05:49;;;;;;;0.63;0.40;;;8.60;99.90;;;;;;5015491;28;20850;-90
2021/05/18 00:08:16;;;;;;;0.50;0.40;;;;;;;;;;5015312;28;20462;-90
2021/05/18 00:13:32;;;;;;;0.90;0.50;;;8.80;99.90;;;;;;5014085;28;20474;-88
2021/05/18 00:16:00;;;;;;;0.90;0.40;;;8.60;99.90;;;;;;5019011;28;20496;-88
2021/05/18 00:18:27;;;;;;;1.53;0.50;;;8.70;99.90;;;;;;5020505;28;20448;-89
2021/05/18 00:20:56;;;;;;;0.60;0.30;;;8.60;99.90;;;;;;5015539;28;20452;-90
2021/05/18 00:23:23;;;;;;;0.50;0.40;;;8.70;99.90;;;;;;5015567;28;20825;-90
2021/05/18 00:25:49;;;;;;;0.40;0.30;;;8.70;99.90;;;;;;5015589;28;20472;-90
2021/05/18 00:28:16;;;;;;;0.57;0.40;;;9.10;99.90;;;;;;5020651;28;20460;-89
2021/05/18 00:30:44;;;;;;;1.10;0.33;;;8.70;99.90;;;;;;5014524;28;20467;-89
2021/05/18 00:33:14;;;;;;;0.60;0.60;;;8.60;99.90;;;;;;5015765;28;20452;-89
2021/05/18 00:35:40;;;;;;;0.43;0.30;;;8.90;99.90;;;;;;5015325;28;20480;-90
2021/05/18 00:38:07;;;;;;;0.90;0.37;;;;;;;;;;5021437;28;20834;-90
2021/05/18 00:40:33;;;;;;;1.00;0.40;;;8.80;99.90;;;;;;5016460;28;20449;-90
2021/05/18 00:43:00;;;;;;;3.33;0.50;;;9.20;99.90;;;;;;5015374;28;20448;-88
2021/05/18 00:45:30;;;;;;;1.03;0.40;;;8.60;99.90;;;;;;5014388;28;20510;-90
2021/05/18 00:47:59;;;;;;;0.40;0.30;;;8.90;99.90;;;;;;5020453;28;20452;-90
2021/05/18 00:50:26;;;;;;;1.10;0.33;;;8.70;99.90;;;;;;5015261;28;20452;-90
2021/05/18 00:52:52;;;;;;;0.53;0.40;;;;;;;;;;5015412;28;20464;-91
2021/05/18 00:55:23;;;;;;;0.40;0.40;;;8.80;99.90;;;;;;5015177;28;20480;-89
2021/05/18 01:00:35;;;;;;;0.57;0.40;;;8.50;99.90;;;;;;5014268;28;20872;-89
2021/05/18 01:03:02;;;;;;;0.60;0.40;;;8.50;99.90;;;;;;5014782;28;20440;-89
2021/05/18 01:08:14;;;;;;;0.77;0.47;;;8.10;99.90;;;;;;5015552;28;20435;-88
2021/05/18 01:10:41;;;;;;;0.70;0.50;;;8.60;99.90;;;;;;5020120;28;20444;-89
2021/05/18 01:13:07;;;;;;;0.60;0.43;;;8.80;99.90;;;;;;5014734;28;20463;-90
2021/05/18 01:15:34;;;;;;;0.67;0.40;;;8.60;99.90;;;;;;5016052;28;20476;-89
2021/05/18 01:18:00;;;;;;;1.53;0.70;;;;;;;;;;5015148;28;20556;-90
2021/05/18 01:20:28;;;;;;;3.50;0.50;;;8.50;99.90;;;;;;5014800;28;20499;-88
2021/05/18 01:22:55;;;;;;;0.70;0.50;;;8.70;99.90;;;;;;5015336;28;20475;-90
2021/05/18 01:25:22;;;;;;;0.50;0.40;;;;;;;;;;5014037;28;20473;-89
2021/05/18 01:27:49;;;;;;;0.60;0.30;;;;;;;;;;5014517;28;20463;-89
2021/05/18 01:30:17;;;;;;;1.20;0.40;;;8.80;99.90;;;;;;5013548;28;20459;-88
2021/05/18 01:32:43;;;;;;;0.60;0.60;;;8.90;99.90;;;;;;5014749;28;20933;-88
2021/05/18 01:35:11;;;;;;;0.53;0.50;;;8.70;99.90;;;;;;5014245;28;20936;-90
2021/05/18 01:37:38;;;;;;;0.60;0.47;;;8.90;99.90;;;;;;5019278;28;20737;-89
2021/05/18 01:40:26;;;;;;;0.40;0.30;;;8.80;99.90;;;;;;5014077;28;20805;-89
2021/05/18 01:42:54;;;;;;;0.70;0.50;;;8.70;99.90;;;;;;5014317;28;20517;-91
2021/05/18 01:45:22;;;;;;;0.50;0.40;;;8.70;99.90;;;;;;5018463;28;20464;-89
2021/05/18 01:47:51;;;;;;;2.93;0.50;;;;;;;;;;5015111;28;20461;-90
2021/05/18 01:50:19;;;;;;;0.43;0.30;;;8.90;99.90;;;;;;5014149;28;20472;-90
2021/05/18 01:52:45;;;;;;;1.90;0.60;;;;;;;;;;5014051;28;20459;-88
2021/05/18 01:55:17;;;;;;;0.80;0.50;;;8.60;99.90;;;;;;5013087;28;20516;-89
2021/05/18 01:57:44;;;;;;;0.83;0.43;;;8.40;99.90;;;;;;5013691;28;20452;-88
2021/05/18 02:00:13;;;;;;;0.50;0.43;;;8.60;99.90;;;;;;5012803;28;21009;-89
2021/05/18 02:02:40;;;;;;;0.93;0.50;;;;;;;;;;5014699;28;20858;-90
2021/05/18 02:05:10;;;;;;;0.80;0.70;;;8.00;99.90;;;;;;5013655;28;20451;-90
2021/05/18 02:07:40;;;;;;;0.50;0.50;;;8.50;99.90;;;;;;5013396;28;20559;-89
2021/05/18 02:10:08;;;;;;;1.43;0.50;;;7.50;99.90;;;;;;5013706;28;20448;-89
2021/05/18 02:12:35;;;;;;;0.60;0.40;;;8.50;99.90;;;;;;5013476;28;20448;-89
2021/05/18 02:15:08;;;;;;;0.80;0.70;;;;;;;;;;5012574;28;20769;-89
2021/05/18 02:17:38;;;;;;;0.70;0.47;;;;;;;;;;5013361;28;20458;-90
2021/05/18 02:20:14;;;;;;;1.00;0.50;;;8.70;99.90;;;;;;5013208;28;20562;-89
2021/05/18 02:25:28;;;;;;;2.10;0.80;;;8.80;99.90;;;;;;5013867;28;20476;-89
2021/05/18 02:27:57;;;;;;;1.47;0.67;;;9.00;99.90;;;;;;5013398;28;20459;-90
2021/05/18 02:30:26;;;;;;;0.80;0.40;;;8.50;99.90;;;;;;5012342;28;20456;-90
2021/05/18 02:32:52;;;;;;;3.33;0.60;;;8.50;99.90;;;;;;5013345;28;20455;-89
2021/05/18 02:35:19;;;;;;;2.13;0.77;;;;;;;;;;5012615;28;20452;-90
2021/05/18 02:37:47;;;;;;;0.93;0.57;;;8.40;99.90;;;;;;5013198;28;20463;-91
2021/05/18 02:40:19;;;;;;;0.70;0.43;;;8.30;99.90;;;;;;5015401;28;20444;-88
2021/05/18 02:42:46;;;;;;;0.70;0.60;;;8.40;99.90;;;;;;5013603;28;20524;-91
2021/05/18 02:45:23;;;;;;;0.83;0.50;;;8.50;99.90;;;;;;5017485;28;20901;-90
2021/05/18 02:50:34;;;;;;;3.90;0.50;;;8.40;99.90;;;;;;5013387;28;20851;-90
2021/05/18 02:53:01;;;;;;;1.40;0.63;;;;;;;;;;5013256;28;20449;-92
2021/05/18 02:55:34;;;;;;;0.60;0.40;;;;;;;;;;5013588;28;20820;-88
2021/05/18 02:58:01;;;;;;;2.87;0.60;;;8.50;99.90;;;;;;5014078;28;20453;-92
2021/05/18 03:00:28;;;;;;;0.60;0.53;;;7.90;99.90;;;;;;5011859;28;20436;-90
2021/05/18 03:02:55;;;;;;;0.50;0.40;;;;;;;;;;5013164;28;20436;-90
2021/05/18 03:05:24;;;;;;;1.63;0.50;;;8.50;99.90;;;;;;5017847;28;20456;-89
2021/05/18 03:07:52;;;;;;;0.90;0.53;;;;;;;;;;5017499;28;20476;-89
2021/05/18 03:10:19;;;;;;;1.40;0.43;;;;;;;;;;5013280;28;21114;-90
2021/05/18 03:12:46;;;;;;;0.40;0.30;;;;;;;;;;5013161;28;20444;-91
2021/05/18 03:15:13;;;;;;;0.90;0.60;;;8.50;99.90;;;;;;5016792;28;20453;-92
2021/05/18 03:17:41;;;;;;;0.60;0.40;;;8.70;99.90;;;;;;5017914;28;20880;-88
2021/05/18 03:20:10;;;;;;;0.50;0.50;;;8.50;99.90;;;;;;5012847;28;20527;-90
2021/05/18 03:22:37;;;;;;;1.27;0.50;;;;;;;;;;5017921;28;20457;-89
2021/05/18 03:25:04;;;;;;;1.33;0.70;;;8.70;99.90;;;;;;5012966;28;20492;-90
2021/05/18 03:27:31;;;;;;;0.80;0.60;;;;;;;;;;5012833;28;20448;-89
2021/05/18 03:29:59;;;;;;;1.43;0.47;;;8.50;99.90;;;;;;5012218;28;20444;-93
2021/05/18 03:35:11;;;;;;;0.70;0.53;;;8.40;99.90;;;;;;5012871;28;20435;-89
2021/05/18 03:37:48;;;;;;;1.40;0.60;;;;;;;;;;5012834;28;20475;-90
2021/05/18 03:40:16;;;;;;;0.93;0.50;;;8.40;99.90;;;;;;5012653;28;20452;-89
2021/05/18 03:42:46;;;;;;;2.00;0.50;;;7.80;99.90;;;;;;5017797;28;20957;-90
2021/05/18 03:45:16;;;;;;;0.60;0.50;;;8.30;99.90;;;;;;5011814;28;20488;-90
2021/05/18 03:53:30;;;;;;;0.70;0.70;;;;;;;;;;5016432;28;20937;-89
2021/05/18 03:58:57;;;;;;;2.30;0.60;;;7.60;99.90;;;;;;5016253;28;20550;-90
2021/05/18 04:04:15;;;;;;;0.50;0.40;;;7.60;99.90;;;;;;5016359;28;20467;-92
2021/05/18 04:12:30;;;;;;;0.43;0.37;;;8.20;99.90;;;;;;5016288;28;20566;-91
2021/05/18 04:17:49;;;;;;;0.80;0.50;;;;;;;;;;5016064;28;20451;-91
2021/05/18 04:20:25;;;;;;;0.47;0.40;;;8.80;99.90;;;;;;5016435;28;20498;-89
2021/05/18 04:23:08;;;;;;;0.50;0.40;;;8.30;99.90;;;;;;5018571;28;20488;-91
2021/05/18 04:39:32;;;;;;;0.40;0.30;;;8.40;99.90;;;;;;4994618;28;20831;-90
2021/05/18 04:53:35;;;;;;;0.80;0.60;;;8.60;99.90;;;;;;5002414;28;20537;-89
2021/05/18 04:59:04;;;;;;;0.90;0.60;;;;;;;;;;5012780;28;20479;-90
2021/05/18 05:01:39;;;;;;;0.60;0.53;;;9.10;99.90;;;;;;5007528;28;20519;-90
2021/05/18 05:04:14;;;;;;;1.23;0.70;;;8.80;99.90;;;;;;5016067;28;20495;-90
2021/05/18 05:06:52;;;;;;;2.10;0.70;;;8.50;99.90;;;;;;5014960;28;20571;-91
2021/05/18 05:09:23;;;;;;;0.97;0.60;;;8.80;99.90;;;;;;5015151;28;20440;-89
2021/05/18 05:14:35;;;;;;;0.50;0.50;;;;;;;;;;5015840;28;20511;-89
2021/05/18 05:17:01;;;;;;;1.10;0.43;;;8.80;99.90;;;;;;5013680;28;20488;-90
2021/05/18 05:19:28;;;;;;;0.93;0.70;;;;;;;;;;5015130;28;20456;-91
2021/05/18 05:21:55;;;;;;;1.00;0.50;;;8.90;99.90;;;;;;5014997;28;20543;-88
2021/05/18 05:24:21;;;;;;;0.50;0.50;;;8.70;99.90;;;;;;5014994;28;20486;-91
2021/05/18 05:26:48;;;;;;;0.73;0.60;;;;;;;;;;5014803;28;20449;-89
2021/05/18 05:29:17;;;;;;;0.63;0.50;;;8.70;99.90;;;;;;5014951;28;20837;-89
2021/05/18 05:31:44;;;;;;;1.37;0.63;;;8.90;99.90;;;;;;5014489;28;20929;-87
2021/05/18 05:34:11;;;;;;;1.63;0.60;;;8.60;99.90;;;;;;5013852;28;20950;-90
2021/05/18 05:36:39;;;;;;;0.50;0.47;;;;;;;;;;5014752;28;21025;-91
2021/05/18 05:39:08;;;;;;;0.70;0.47;;;8.90;99.90;;;;;;5014589;28;20463;-90
2021/05/18 05:41:35;;;;;;;0.73;0.57;;;8.70;99.90;;;;;;5014124;28;20452;-90
2021/05/18 05:44:02;;;;;;;1.20;0.93;;;;;;;;;;5012720;28;20468;-88
2021/05/18 05:46:30;;;;;;;1.90;0.63;;;7.20;99.90;;;;;;5013059;28;20480;-89
2021/05/18 05:48:56;;;;;;;4.10;0.93;;;8.80;99.90;;;;;;5011478;28;20515;-88
2021/05/18 05:51:24;;;;;;;3.70;0.97;;;8.80;99.90;;;;;;5014635;28;20448;-90
2021/05/18 05:53:52;;;;;;;2.80;1.10;;;8.80;99.90;;;;;;5014706;28;20807;-90
2021/05/18 05:56:18;;;;;;;1.07;1.00;;;;;;;;;;5014907;28;20622;-90
2021/05/18 05:58:45;;;;;;;0.60;0.50;;;9.10;99.90;;;;;;5015565;28;20468;-89
2021/05/18 06:01:12;;;;;;;1.40;0.77;;;8.80;99.90;;;;;;5012473;28;20457;-89
2021/05/18 06:03:39;;;;;;;1.30;0.83;;;9.00;99.90;;;;;;5013737;28;20456;-88
2021/05/18 06:06:06;;;;;;;0.60;0.60;;;8.80;99.90;;;;;;5013237;28;20572;-87
2021/05/18 06:08:36;;;;;;;0.70;0.60;;;8.80;99.90;;;;;;5013997;28;20464;-88
2021/05/18 06:11:07;;;;;;;6.37;1.03;;;;;;;;;;5014916;28;20480;-88
2021/05/18 06:41:31;;;;;;;7.80;7.00;;;9.60;99.90;;;;;;5021636;28;20515;-88
2021/05/18 06:46:53;;;;;;;1.73;1.60;;;;;;;;;;4969814;28;20492;-88
2021/05/18 06:49:19;;;;;;;11.90;2.27;;;9.90;99.90;;;;;;5020272;28;20448;-88
2021/05/18 06:51:47;;;;;;;3.67;3.37;;;10.10;99.90;;;;;;5016714;28;20452;-88
2021/05/18 06:54:13;;;;;;;2.50;2.00;;;;;;;;;;5019325;28;20526;-86
2021/05/18 06:56:42;;;;;;;2.30;1.63;;;;;;;;;;5014786;28;20554;-87
2021/05/18 07:01:57;;;;;;;1.60;1.50;;;10.50;99.90;;;;;;5016829;28;20471;-88
2021/05/18 07:04:25;;;;;;;0.97;0.90;;;10.40;99.90;;;;;;5017141;28;20475;-88
2021/05/18 07:07:02;;;;;;;2.47;0.90;;;11.00;99.90;;;;;;5014541;28;20472;-87
2021/05/18 07:09:29;;;;;;;9.83;1.50;;;10.90;99.90;;;;;;5005105;28;20452;-89
2021/05/18 07:11:55;;;;;;;2.70;1.37;;;;;;;;;;5014597;28;20448;-87
2021/05/18 07:14:22;;;;;;;1.97;1.80;;;11.00;99.90;;;;;;5014774;28;20475;-87
2021/05/18 07:16:48;;;;;;;2.40;2.20;;;10.80;99.90;;;;;;5012992;28;20498;-88
2021/05/18 07:19:14;;;;;;;1.23;0.80;;;;;;;;;;5013542;28;20449;-86
2021/05/18 07:21:41;;;;;;;4.63;0.60;;;10.50;99.90;;;;;;4999477;28;20807;-87
2021/05/18 07:24:12;;;;;;;1.50;1.40;;;10.50;99.90;;;;;;5004223;28;20456;-86
2021/05/18 07:26:38;;;;;;;1.50;1.00;;;11.20;99.90;;;;;;5017395;28;20514;-87
2021/05/18 07:29:04;;;;;;;1.33;0.97;;;;;;;;;;5019019;28;20456;-86
2021/05/18 07:31:31;;;;;;;1.43;1.17;;;11.30;99.90;;;;;;5025678;28;20448;-85
2021/05/18 07:33:58;;;;;;;1.67;0.60;;;10.60;99.90;;;;;;5017034;28;20455;-86
2021/05/18 07:36:28;;;;;;;2.90;1.33;;;11.40;99.90;;;;;;5028546;28;21018;-85
2021/05/18 07:38:56;;;;;;;1.83;1.00;;;11.40;99.90;;;;;;5016851;28;20460;-86
2021/05/18 07:41:23;;;;;;;1.00;0.70;;;11.20;99.90;;;;;;5016876;28;20448;-86
2021/05/18 07:43:50;;;;;;;3.07;1.90;;;;;;;;;;5016652;28;20444;-86
2021/05/18 07:46:18;;;;;;;2.90;2.00;;;;;;;;;;5016988;28;20440;-87
2021/05/18 07:49:07;;;;;;;4.20;1.00;;;;;;;;;;5041625;28;20466;-89
2021/05/18 07:51:45;;;;;;;2.93;0.87;;;;;;;;;;5039911;28;20522;-89
2021/05/18 07:59:45;;;;;;;3.80;0.93;;;10.10;99.90;;;;;;5010126;28;20468;-89
2021/05/18 08:02:31;;;;;;;2.37;0.93;;;;;;;;;;5013645;28;20452;-91
2021/05/18 08:07:42;;;;;;;1.50;0.87;;;10.60;99.90;;;;;;4997040;28;20472;-88
2021/05/18 08:10:12;;;;;;;1.67;0.90;;;10.50;99.90;;;;;;4997463;28;20953;-89
2021/05/18 08:12:40;;;;;;;2.67;0.60;;;10.10;99.90;;;;;;4997603;28;20488;-88
2021/05/18 08:18:05;;;;;;;3.10;1.00;;;10.50;99.90;;;;;;4997159;28;20506;-89
2021/05/18 09:33:54;;;;;;;3.40;1.40;;;12.90;99.90;;;;;;5032156;28;20435;-89
2021/05/18 10:22:00;;;;;;;3.23;1.13;;;12.10;99.90;;;;;;5017774;28;20443;-91
2021/05/18 10:35:49;;;;;;;1.43;0.40;;;14.20;99.90;;;;;;5015021;28;20806;-87
2021/05/18 10:38:21;;;;;;;1.43;0.67;;;14.40;99.90;;;;;;5015474;28;20453;-90
2021/05/18 10:40:47;;;;;;;0.87;0.40;;;;;;;;;;5015842;28;20428;-91
2021/05/18 10:43:30;;;;;;;2.33;0.67;;;15.30;99.90;;;;;;5014766;28;20455;-88
2021/05/18 10:46:19;;;;;;;2.53;0.70;;;15.40;99.90;;;;;;5018735;28;20558;-89
2021/05/18 10:49:03;;;;;;;2.90;0.60;;;15.20;99.90;;;;;;5025063;28;20460;-91
2021/05/18 10:51:36;;;;;;;0.80;0.30;;;15.20;99.90;;;;;;5040855;28;20471;-89
2021/05/18 10:54:20;;;;;;;0.70;0.60;;;14.70;99.90;;;;;;5024097;28;20526;-90
2021/05/18 10:57:21;;;;;;;5.47;0.87;;;14.30;99.90;;;;;;5014465;28;20929;-91
2021/05/18 10:59:58;;;;;;;1.23;0.40;;;13.80;99.90;;;;;;5015868;28;20448;-88
2021/05/18 11:02:28;;;;;;;1.40;0.50;;;15.00;99.90;;;;;;5012931;28;20506;-88
2021/05/18 11:04:57;;;;;;;0.80;0.50;;;14.80;99.90;;;;;;5013981;28;20456;-91
2021/05/18 11:07:30;;;;;;;4.63;0.80;;;14.60;99.90;;;;;;5032891;28;20982;-88
2021/05/18 11:09:57;;;;;;;0.90;0.60;;;;;;;;;;5029681;28;20951;-88
2021/05/18 11:12:24;;;;;;;0.80;0.50;;;;;;;;;;5033774;28;20498;-88
2021/05/18 11:14:54;;;;;;;1.03;0.50;;;13.50;99.90;;;;;;5032974;28;20448;-90
2021/05/18 11:17:23;;;;;;;2.73;0.83;;;13.60;99.90;;;;;;5035280;28;20491;-94
2021/05/18 11:20:07;;;;;;;1.30;0.80;;;13.40;99.90;;;;;;5035347;28;20444;-91
2021/05/18 11:25:41;;;;;;;1.70;0.60;;;15.00;99.90;;;;;;5034844;28;20446;-91
2021/05/18 11:28:13;;;;;;;1.00;0.60;;;15.50;99.90;;;;;;5036028;28;20470;-92
2021/05/18 11:30:42;;;;;;;0.60;0.50;;;15.60;99.90;;;;;;5034477;28;20440;-92
2021/05/18 11:33:08;;;;;;;0.57;0.43;;;;;;;;;;5037603;28;20455;-94
2021/05/18 11:35:36;;;;;;;1.43;0.30;;;13.60;99.90;;;;;;5037391;28;20947;-92
2021/05/18 11:38:06;;;;;;;1.47;0.50;;;12.10;99.90;;;;;;5035495;28;20599;-90
2021/05/18 11:40:44;;;;;;;1.70;0.30;;;11.60;99.90;;;;;;5035523;28;20463;-91
2021/05/18 11:43:16;;;;;;;0.60;0.47;;;11.10;99.90;;;;;;5034087;28;20440;-89
2021/05/18 11:45:43;;;;;;;0.80;0.40;;;;;;;;;;5033713;28;21012;-90
2021/05/18 11:48:15;;;;;;;1.97;0.50;;;11.00;99.90;;;;;;5034003;28;20442;-90
2021/05/18 11:50:41;;;;;;;1.60;0.50;;;;;;;;;;5033459;28;20473;-90
2021/05/18 11:53:08;;;;;;;0.87;0.50;;;;;;;;;;5042116;28;20454;-91
2021/05/18 11:55:36;;;;;;;1.90;0.70;;;11.70;99.90;;;;;;5036882;28;20459;-93
2021/05/18 11:58:02;;;;;;;1.43;0.47;;;;;;;;;;5042634;28;20498;-92
2021/05/18 12:00:34;;;;;;;1.50;0.60;;;12.20;99.90;;;;;;5037436;28;20455;-93
2021/05/18 12:03:10;;;;;;;3.20;0.70;;;12.50;99.90;;;;;;5053993;22;20589;-91
2021/05/18 12:05:52;;;;;;;1.00;0.50;;;12.30;99.90;;;;;;5107523;22;20490;-92
2021/05/18 12:08:31;;;;;;;1.27;0.47;;;12.10;99.90;;;;;;5067616;28;20518;-92
2021/05/18 12:11:14;;;;;;;0.60;0.40;;;12.60;99.90;;;;;;5001223;28;20547;-93
2021/05/18 12:13:41;;;;;;;1.33;0.50;;;;;;;;;;5073623;22;20604;-93
2021/05/18 12:16:35;;;;;;;0.70;0.50;;;;;;;;;;5075526;28;20454;-93
2021/05/18 12:19:04;;;;;;;1.67;0.50;;;;;;;;;;5023181;28;21110;-93
2021/05/18 12:21:32;;;;;;;1.47;0.53;;;;;;;;;;5020051;28;20457;-92
2021/05/18 12:24:08;;;;;;;1.03;0.50;;;14.90;99.90;;;;;;5021184;28;20552;-93
2021/05/18 12:26:46;;;;;;;1.13;0.30;;;15.50;99.90;;;;;;5011944;28;20494;-90
2021/05/18 12:29:29;;;;;;;0.40;0.30;;;14.80;99.90;;;;;;5016225;28;20453;-91
2021/05/18 12:31:55;;;;;;;1.00;0.60;;;;;;;;;;5012627;28;20500;-92
2021/05/18 12:34:29;;;;;;;1.30;0.60;;;15.60;99.90;;;;;;5019460;28;20959;-92
2021/05/18 12:36:57;;;;;;;0.70;0.50;;;14.70;99.90;;;;;;5014899;28;20456;-91
2021/05/18 12:39:24;;;;;;;1.23;0.60;;;;;;;;;;5017818;28;20595;-91
2021/05/18 12:41:57;;;;;;;1.10;0.60;;;14.00;99.90;;;;;;5018360;28;20488;-89
2021/05/18 12:44:25;;;;;;;2.10;0.60;;;14.00;99.90;;;;;;5008870;28;20487;-89
2021/05/18 12:46:57;;;;;;;1.77;0.50;;;13.60;99.90;;;;;;4971040;28;20561;-91
2021/05/18 12:49:29;;;;;;;3.23;0.70;;;13.40;99.90;;;;;;4956080;29;20452;-89
2021/05/18 12:52:13;;;;;;;4.63;1.10;;;13.20;99.90;;;;;;4958898;29;20443;-87
2021/05/18 12:54:54;;;;;;;2.10;0.70;;;12.90;99.90;;;;;;4956759;29;20482;-91
2021/05/18 12:57:23;;;;;;;1.47;0.40;;;13.20;99.90;;;;;;4987173;28;20449;-92
2021/05/18 12:59:58;;;;;;;2.30;0.80;;;13.00;99.90;;;;;;4996653;28;20508;-89
2021/05/18 13:02:29;;;;;;;1.97;0.53;;;13.20;99.90;;;;;;4992926;28;20495;-92
2021/05/18 13:05:14;;;;;;;2.60;0.60;;;13.00;99.90;;;;;;4997400;28;20445;-90
2021/05/18 13:07:41;;;;;;;2.47;0.70;;;12.90;99.90;;;;;;4997830;28;20485;-90
2021/05/18 13:10:13;;;;;;;2.40;0.60;;;12.80;99.90;;;;;;4997350;28;20456;-91
2021/05/18 13:12:40;;;;;;;1.10;0.50;;;;;;;;;;5010251;28;20477;-91
2021/05/18 13:15:08;;;;;;;1.53;0.50;;;12.90;99.90;;;;;;5003048;28;20479;-92
2021/05/18 13:17:38;;;;;;;1.37;0.90;;;;;;;;;;5001187;28;20485;-91
2021/05/18 13:20:08;;;;;;;1.43;0.40;;;13.60;99.90;;;;;;4998295;28;20456;-92
2021/05/18 13:22:37;;;;;;;1.70;0.50;;;;;;;;;;4962271;28;20552;-92
2021/05/18 13:27:55;;;;;;;0.53;0.40;;;14.40;99.90;;;;;;4997338;28;20489;-91
2021/05/18 13:30:22;;;;;;;0.60;0.40;;;;;;;;;;4996085;28;20979;-92
2021/05/18 13:32:48;;;;;;;1.63;0.43;;;;;;;;;;4998751;28;20504;-90
2021/05/18 13:35:17;;;;;;;0.50;0.30;;;14.90;99.90;;;;;;4998063;28;20804;-91
2021/05/18 13:37:44;;;;;;;0.50;0.30;;;;;;;;;;4998407;28;21092;-93
2021/05/18 13:40:11;;;;;;;0.60;0.40;;;;;;;;;;4993058;28;20457;-91
2021/05/18 13:42:37;;;;;;;0.50;0.30;;;;;;;;;;4995630;28;20456;-91
2021/05/18 13:45:04;;;;;;;1.33;0.70;;;;;;;;;;4996209;28;20444;-91
2021/05/18 13:47:34;;;;;;;0.70;0.50;;;13.70;99.90;;;;;;4996323;28;20496;-92
2021/05/18 13:50:01;;;;;;;7.23;0.50;;;;;;;;;;4996335;28;20600;-90
2021/05/18 13:52:29;;;;;;;0.80;0.40;;;;;;;;;;4996824;28;20544;-92
2021/05/18 13:54:56;;;;;;;0.53;0.33;;;;;;;;;;4993831;28;20456;-91
2021/05/18 13:57:22;;;;;;;1.00;0.40;;;;;;;;;;4996459;28;20519;-90
2021/05/18 13:59:49;;;;;;;0.90;0.53;;;;;;;;;;5001741;28;20453;-90
2021/05/18 14:02:16;;;;;;;0.60;0.30;;;13.50;99.90;;;;;;5014912;28;20460;-91
2021/05/18 14:04:43;;;;;;;0.40;0.40;;;;;;;;;;5014806;28;20511;-88
2021/05/18 14:10:25;;;;;;;1.50;0.50;;;12.40;99.90;;;;;;4969255;28;20472;-91
2021/05/18 14:12:53;;;;;;;0.70;0.40;;;12.70;99.90;;;;;;4974564;28;20477;-91
2021/05/18 14:15:19;;;;;;;1.10;0.30;;;;;;;;;;4965220;28;20844;-92
2021/05/18 14:17:46;;;;;;;0.90;0.40;;;;;;;;;;4965489;28;20552;-90
2021/05/18 14:20:14;;;;;;;1.10;0.67;;;13.60;99.90;;;;;;4966387;28;20458;-88
2021/05/18 14:22:40;;;;;;;2.43;0.60;;;;;;;;;;4984709;28;20503;-90
2021/05/18 14:25:08;;;;;;;1.57;0.50;;;14.00;99.90;;;;;;4993258;28;20929;-91
2021/05/18 14:27:36;;;;;;;2.70;0.90;;;13.40;99.90;;;;;;4991863;28;21063;-92
2021/05/18 14:30:05;;;;;;;0.50;0.30;;;12.80;99.90;;;;;;4993624;28;20458;-89
2021/05/18 14:32:31;;;;;;;0.90;0.50;;;;;;;;;;4990224;28;20452;-92
2021/05/18 14:34:58;;;;;;;0.73;0.50;;;;;;;;;;4990234;28;20483;-92
2021/05/18 14:37:25;;;;;;;1.17;0.40;;;;;;;;;;4992337;28;20576;-93
2021/05/18 14:39:58;;;;;;;0.90;0.40;;;;;;;;;;4994857;28;20453;-92
2021/05/18 14:45:15;;;;;;;0.83;0.60;;;13.60;99.90;;;;;;5014614;28;20593;-91
2021/05/18 14:47:48;;;;;;;0.50;0.40;;;;;;;;;;5013831;28;20588;-89
2021/05/18 14:55:45;;;;;;;0.60;0.50;;;;;;;;;;5006529;28;20492;-91
2021/05/18 14:58:14;;;;;;;0.50;0.30;;;;;;;;;;5012545;28;20448;-92
2021/05/18 15:00:42;;;;;;;2.17;0.63;;;13.20;99.90;;;;;;4993386;28;20565;-91
2021/05/18 15:03:09;;;;;;;1.67;0.60;;;;;;;;;;4989504;28;20484;-91
2021/05/18 15:05:36;;;;;;;0.93;0.30;;;;;;;;;;4995012;28;20464;-93
2021/05/18 15:08:02;;;;;;;1.67;0.50;;;;;;;;;;4994043;28;20520;-90
2021/05/18 15:10:29;;;;;;;1.80;0.47;;;;;;;;;;5002008;28;20856;-90
2021/05/18 15:12:55;;;;;;;3.23;0.87;;;;;;;;;;5014797;28;20447;-89
2021/05/18 15:15:22;;;;;;;0.80;0.53;;;;;;;;;;5012475;28;20489;-90
2021/05/18 15:17:51;;;;;;;1.43;0.80;;;15.10;99.90;;;;;;5011282;28;20445;-87
2021/05/18 15:20:19;;;;;;;0.80;0.50;;;14.80;99.90;;;;;;4996537;28;20453;-91
2021/05/18 15:22:45;;;;;;;1.53;0.57;;;;;;;;;;4994136;28;20421;-90
2021/05/18 15:25:12;;;;;;;0.50;0.40;;;;;;;;;;5014125;28;20487;-91
2021/05/18 15:27:39;;;;;;;2.20;0.60;;;;;;;;;;5013516;28;20483;-90
2021/05/18 15:30:07;;;;;;;1.00;0.50;;;15.50;99.90;;;;;;5009209;28;20530;-91
2021/05/18 15:32:33;;;;;;;0.60;0.50;;;;;;;;;;5013476;28;20484;-92
2021/05/18 15:35:01;;;;;;;1.93;0.50;;;;;;;;;;5013458;28;21187;-90
2021/05/18 15:37:27;;;;;;;0.80;0.50;;;;;;;;;;5013272;28;20459;-87
2021/05/18 15:39:54;;;;;;;2.03;0.67;;;;;;;;;;5011348;28;20428;-89
2021/05/18 15:42:23;;;;;;;0.60;0.20;;;;;;;;;;5014013;28;20452;-90
2021/05/18 15:44:55;;;;;;;3.33;0.60;;;13.80;99.90;;;;;;5017883;28;20527;-90
2021/05/18 15:47:22;;;;;;;2.50;0.73;;;;;;;;;;5009855;28;20518;-92
2021/05/18 15:49:48;;;;;;;1.80;0.57;;;;;;;;;;5017251;28;20551;-93
2021/05/18 15:52:16;;;;;;;5.57;0.63;;;14.10;99.90;;;;;;5016913;28;20433;-92
2021/05/18 15:54:42;;;;;;;1.70;0.70;;;;;;;;;;5015713;28;20452;-90
2021/05/18 15:57:10;;;;;;;1.33;0.50;;;;;;;;;;5016163;28;20960;-90
2021/05/18 15:59:37;;;;;;;1.30;0.50;;;;;;;;;;5017036;28;20539;-91
2021/05/18 16:02:03;;;;;;;1.37;0.50;;;;;;;;;;5015218;28;20457;-89
2021/05/18 16:04:30;;;;;;;0.50;0.30;;;;;;;;;;5013346;28;20448;-90
2021/05/18 16:06:58;;;;;;;2.87;1.20;;;;;;;;;;5016425;28;20536;-90
2021/05/18 16:09:26;;;;;;;0.50;0.40;;;12.80;99.90;;;;;;5021358;28;20524;-91
2021/05/18 16:11:53;;;;;;;4.87;0.60;;;;;;;;;;5026290;28;20453;-92
2021/05/18 16:14:19;;;;;;;0.40;0.30;;;;;;;;;;5019176;28;21063;-92
2021/05/18 16:16:48;;;;;;;0.50;0.33;;;;;;;;;;5015220;28;20467;-91
2021/05/18 16:19:18;;;;;;;0.60;0.40;;;12.80;99.90;;;;;;5011650;28;20527;-90
2021/05/18 16:21:45;;;;;;;2.93;0.60;;;;;;;;;;5012813;28;20959;-91
2021/05/18 16:24:11;;;;;;;3.17;0.67;;;;;;;;;;5017487;28;20437;-93
2021/05/18 16:26:38;;;;;;;4.03;0.90;;;12.70;99.90;;;;;;5020121;28;20484;-90
2021/05/18 16:29:06;;;;;;;1.30;0.60;;;12.90;99.90;;;;;;5028755;28;20444;-90
2021/05/18 16:31:33;;;;;;;1.87;0.63;;;12.80;99.90;;;;;;5022758;28;20948;-90
2021/05/18 16:34:00;;;;;;;0.97;0.40;;;12.90;99.90;;;;;;5016730;28;20819;-91
2021/05/18 16:36:28;;;;;;;0.70;0.43;;;12.70;99.90;;;;;;5019004;28;20802;-91
2021/05/18 16:38:56;;;;;;;2.83;0.60;;;12.60;99.90;;;;;;5017596;28;20457;-86
2021/05/18 16:41:22;;;;;;;1.33;0.60;;;;;;;;;;5020749;28;20452;-88
2021/05/18 16:43:51;;;;;;;0.60;0.50;;;12.70;99.90;;;;;;5006153;28;20445;-90
2021/05/18 16:46:22;;;;;;;1.20;0.47;;;12.60;99.90;;;;;;4995095;28;20456;-91
2021/05/18 16:48:48;;;;;;;1.93;0.60;;;;;;;;;;4994766;28;21047;-89
2021/05/18 16:51:16;;;;;;;2.07;0.80;;;;;;;;;;4996246;28;20464;-90
2021/05/18 16:53:42;;;;;;;0.60;0.40;;;12.30;99.90;;;;;;4995681;28;20933;-91
2021/05/18 16:56:09;;;;;;;0.60;0.40;;;;;;;;;;5007483;23;20457;-91
2021/05/18 16:58:36;;;;;;;2.63;0.80;;;12.90;99.90;;;;;;5035012;28;20464;-90
2021/05/18 17:01:04;;;;;;;1.50;0.57;;;14.40;99.90;;;;;;5035062;28;20787;-91
2021/05/18 17:03:30;;;;;;;1.53;0.50;;;;;;;;;;5033398;28;20435;-91
2021/05/18 17:05:59;;;;;;;1.23;0.60;;;;;;;;;;5030668;28;20467;-92
2021/05/18 17:08:26;;;;;;;3.90;0.53;;;;;;;;;;5033792;28;20589;-91
2021/05/18 17:10:52;;;;;;;4.10;0.83;;;;;;;;;;5035755;28;20949;-90
2021/05/18 17:13:19;;;;;;;1.27;0.80;;;;;;;;;;5030264;28;20798;-90
2021/05/18 17:15:46;;;;;;;2.07;0.53;;;;;;;;;;5033100;28;20934;-92
2021/05/18 17:18:15;;;;;;;0.80;0.60;;;12.00;99.90;;;;;;5033061;28;20443;-90
2021/05/18 17:20:41;;;;;;;2.30;0.87;;;;;;;;;;5035048;28;20448;-92
2021/05/18 17:23:08;;;;;;;1.80;0.50;;;12.20;99.90;;;;;;5035062;28;20816;-90
2021/05/18 17:25:34;;;;;;;0.60;0.40;;;;;;;;;;5033217;28;20440;-89
2021/05/18 17:28:06;;;;;;;1.00;0.40;;;11.10;99.90;;;;;;5033946;28;20494;-89
2021/05/18 17:30:33;;;;;;;0.50;0.30;;;;;;;;;;5033123;28;20448;-90
2021/05/18 17:32:59;;;;;;;1.53;0.50;;;;;;;;;;5033847;28;20611;-90
2021/05/18 17:35:27;;;;;;;2.13;0.40;;;10.70;99.90;;;;;;5034920;28;20444;-89
2021/05/18 17:37:53;;;;;;;0.80;0.50;;;;;;;;;;5035012;28;21045;-89
2021/05/18 17:40:20;;;;;;;0.73;0.40;;;10.50;99.90;;;;;;5035814;28;20450;-93
2021/05/18 17:42:47;;;;;;;0.87;0.50;;;;;;;;;;5038221;28;20501;-92
2021/05/18 17:45:16;;;;;;;0.87;0.50;;;10.50;99.90;;;;;;5037843;28;20949;-90
2021/05/18 17:47:44;;;;;;;0.60;0.40;;;10.40;99.90;;;;;;5035355;28;20954;-89
2021/05/18 17:50:12;;;;;;;2.00;0.50;;;9.90;99.90;;;;;;5033204;28;20497;-91
2021/05/18 17:52:41;;;;;;;1.17;0.50;;;10.30;99.90;;;;;;5036968;28;20501;-90
2021/05/18 17:55:09;;;;;;;0.73;0.50;;;10.20;99.90;;;;;;5035371;28;20452;-90
2021/05/18 17:57:36;;;;;;;0.50;0.50;;;;;;;;;;5034199;28;20502;-90
2021/05/18 18:00:04;;;;;;;0.70;0.37;;;10.00;99.90;;;;;;5033915;28;20439;-90
2021/05/18 18:02:30;;;;;;;0.60;0.50;;;;;;;;;;5033986;28;20447;-91